Time;durP1;ratioP1;P1;durP2;ratioP2;P2;SDS_P1;SDS_P2;PMS_P1;PMS_P2;Temp;Humidity;BMP_temperature;BMP_pressure;BME280_temperature;BME280_humidity;BME280_pressure;Samples;Min_cycle;Max_cycle;Signal;HPM_P1;HPM_P2
2023/06/23 00:07:08;;;;;;;;;;;;;;;;;;5092137;27;19923;-70
2023/06/23 00:09:36;;;;;;;;;;;;;;;;;;5090951;28;20003;-70
2023/06/23 00:12:03;;;;;;;;;;;;;;;;;;5091241;28;19999;-71
2023/06/23 00:14:29;;;;;;;;;;;;;;;;;;5091174;28;19994;-71
2023/06/23 00:18:20;;;;;;;;;;;;;;;;;;5091362;27;19912;-71
2023/06/23 00:20:46;;;;;;;;;;;;;;;;;;5091332;28;19912;-70
2023/06/23 00:25:04;;;;;;;;;;;;;;;;;;5091822;27;20280;-70
2023/06/23 00:28:27;;;;;;;;;;;;;;;;;;5091491;27;19920;-72
2023/06/23 00:30:53;;;;;;;;;;;;;;;;;;5090970;28;19935;-70
2023/06/23 00:34:54;;;;;;;;;;;;;;;;;;5091436;27;19912;-70
2023/06/23 00:37:20;;;;;;;;;;;;;;;;;;5090921;28;20027;-70
2023/06/23 00:40:53;;;;;;;;;;;;;;;;;;5091913;27;19916;-70
2023/06/23 00:44:01;;;;;;;;;;;;;;;;;;5091386;27;19917;-70
2023/06/23 00:46:27;;;;;;;;;;;;;;;;;;5091545;28;19912;-71
2023/06/23 00:48:53;;;;;;;;;;;;;;;;;;5091341;28;19923;-71
2023/06/23 01:03:57;;;;;;;;;;;;;;;;;;5112582;27;19951;-70
2023/06/23 01:07:39;;;;;;;;;;;;;;;;;;5091860;27;19923;-70
2023/06/23 01:12:58;;;;;;;;;;;;;;;;;;5091207;27;19923;-70
2023/06/23 01:18:55;;;;;;;;;;;;;;;;;;5132507;27;19922;-70
2023/06/23 01:21:40;;;;;;;;;;;;;;;;;;5091887;28;19916;-70
2023/06/23 01:24:06;;;;;;;;;;;;;;;;;;5091415;28;20003;-70
2023/06/23 01:30:30;;;;;;;;;;;;;;;;;;5091404;27;19922;-70
2023/06/23 01:34:20;;;;;;;;;;;;;;;;;;5071066;28;20287;-70
2023/06/23 01:39:35;;;;;;;;;;;;;;;;;;5071696;28;20284;-70
2023/06/23 01:42:26;;;;;;;;;;;;;;;;;;5111782;27;19916;-70
2023/06/23 01:47:02;;;;;;;;;;;;;;;;;;5173604;27;20374;-70
2023/06/23 01:50:45;;;;;;;;;;;;;;;;;;5091594;27;19917;-70
2023/06/23 01:53:11;;;;;;;;;;;;;;;;;;5091280;28;20456;-71
2023/06/23 01:55:38;;;;;;;;;;;;;;;;;;5090816;28;19915;-70
2023/06/23 02:03:57;;;;;;;;;;;;;;;;;;5112442;27;20344;-71
2023/06/23 02:09:10;;;;;;;;;;;;;;;;;;5091153;27;20291;-71
2023/06/23 02:12:43;;;;;;;;;;;;;;;;;;5091842;27;19912;-71
2023/06/23 02:18:45;;;;;;;;;;;;;;;;;;5092164;28;20288;-71
2023/06/23 02:21:11;;;;;;;;;;;;;;;;;;5091365;28;19999;-70
2023/06/23 02:23:37;;;;;;;;;;;;;;;;;;5090980;28;20326;-70
2023/06/23 02:29:40;;;;;;;;;;;;;;;;;;5091253;28;19935;-71
2023/06/23 02:35:02;;;;;;;;;;;;;;;;;;5112308;27;19916;-70
2023/06/23 02:40:14;;;;;;;;;;;;;;;;;;5072042;28;20285;-71
2023/06/23 02:42:40;;;;;;;;;;;;;;;;;;5071166;28;19966;-70
2023/06/23 02:47:46;;;;;;;;;;;;;;;;;;5111985;27;19916;-70
2023/06/23 02:50:12;;;;;;;;;;;;;;;;;;5110057;28;20010;-70
2023/06/23 02:54:32;;;;;;;;;;;;;;;;;;5091402;27;19919;-70
2023/06/23 02:58:42;;;;;;;;;;;;;;;;;;5091152;27;20269;-70
2023/06/23 03:03:49;;;;;;;;;;;;;;;;;;5111707;27;20388;-70
2023/06/23 03:07:40;;;;;;;;;;;;;;;;;;5092123;27;19923;-71
2023/06/23 03:10:06;;;;;;;;;;;;;;;;;;5092001;28;20419;-71
2023/06/23 03:12:32;;;;;;;;;;;;;;;;;;5090932;28;19912;-71
2023/06/23 03:20:08;;;;;;;;;;;;;;;;;;5091125;27;19919;-70
2023/06/23 03:24:26;;;;;;;;;;;;;;;;;;5152952;27;20002;-71
2023/06/23 03:27:48;;;;;;;;;;;;;;;;;;5091451;28;19917;-70
2023/06/23 03:30:48;;;;;;;;;;;;;;;;;;5111748;27;19916;-70
2023/06/23 03:33:14;;;;;;;;;;;;;;;;;;5111645;28;20447;-70
2023/06/23 03:35:40;;;;;;;;;;;;;;;;;;5110405;28;20024;-70
2023/06/23 03:38:52;;;;;;;;;;;;;;;;;;5091909;28;19922;-70
2023/06/23 03:41:18;;;;;;;;;;;;;;;;;;5089696;28;20003;-70
2023/06/23 03:45:45;;;;;;;;;;;;;;;;;;5091430;27;19913;-71
2023/06/23 03:48:11;;;;;;;;;;;;;;;;;;5091345;28;20436;-70
2023/06/23 03:52:00;;;;;;;;;;;;;;;;;;5091718;27;19923;-70
2023/06/23 03:54:26;;;;;;;;;;;;;;;;;;5091079;28;20003;-70
2023/06/23 03:56:52;;;;;;;;;;;;;;;;;;5091739;28;19909;-70
2023/06/23 04:01:34;;;;;;;;;;;;;;;;;;5111828;27;19912;-70
2023/06/23 04:05:42;;;;;;;;;;;;;;;;;;5112170;27;19916;-70
2023/06/23 04:08:08;;;;;;;;;;;;;;;;;;5111302;28;20356;-70
2023/06/23 04:13:13;;;;;;;;;;;;;;;;;;5092207;27;20010;-70
2023/06/23 04:15:39;;;;;;;;;;;;;;;;;;5091070;28;19913;-70
2023/06/23 04:20:13;;;;;;;;;;;;;;;;;;5113301;27;20311;-71
2023/06/23 04:25:59;;;;;;;;;;;;;;;;;;5092205;27;20261;-70
2023/06/23 04:28:26;;;;;;;;;;;;;;;;;;5091495;28;20011;-70
2023/06/23 04:35:41;;;;;;;;;;;;;;;;;;5091369;27;20295;-70
2023/06/23 04:38:51;;;;;;;;;;;;;;;;;;5091621;27;20288;-70
2023/06/23 04:42:11;;;;;;;;;;;;;;;;;;5091734;28;19913;-70
2023/06/23 04:44:37;;;;;;;;;;;;;;;;;;5091012;28;20007;-70
2023/06/23 04:48:36;;;;;;;;;;;;;;;;;;5091523;27;19916;-70
2023/06/23 04:54:39;;;;;;;;;;;;;;;;;;5091352;28;19922;-70
2023/06/23 04:57:05;;;;;;;;;;;;;;;;;;5089553;28;19912;-71
2023/06/23 05:00:34;;;;;;;;;;;;;;;;;;5091690;27;19916;-70
2023/06/23 05:06:12;;;;;;;;;;;;;;;;;;5091748;28;19917;-70
2023/06/23 05:08:38;;;;;;;;;;;;;;;;;;5091569;28;19912;-70
2023/06/23 05:13:36;;;;;;;;;;;;;;;;;;5112458;27;19912;-70
2023/06/23 05:16:02;;;;;;;;;;;;;;;;;;5111704;28;20004;-67
2023/06/23 05:18:28;;;;;;;;;;;;;;;;;;5111152;28;19955;-66
2023/06/23 05:23:02;;;;;;;;;;;;;;;;;;5072127;28;19939;-66
2023/06/23 05:25:30;;;;;;;;;;;;;;;;;;5071105;28;19996;-65
2023/06/23 05:27:59;;;;;;;;;;;;;;;;;;5071137;28;19962;-66
2023/06/23 05:30:25;;;;;;;;;;;;;;;;;;5068363;28;20319;-67
2023/06/23 05:32:51;;;;;;;;;;;;;;;;;;5070017;28;19913;-67
2023/06/23 05:36:53;;;;;;;;;;;;;;;;;;4887859;27;6802369;-67
2023/06/23 05:43:32;;;;;;;;;;;;;;;;;;5111642;27;19926;-67
2023/06/23 05:45:58;;;;;;;;;;;;;;;;;;5106129;28;19995;-67
2023/06/23 05:48:27;;;;;;;;;;;;;;;;;;5110117;28;19908;-66
2023/06/23 05:52:20;;;;;;;;;;;;;;;;;;5087713;27;19926;-65
2023/06/23 05:54:46;;;;;;;;;;;;;;;;;;5089688;28;19912;-64
2023/06/23 05:57:12;;;;;;;;;;;;;;;;;;5090799;28;19909;-65
2023/06/23 06:06:51;;;;;;;;;;;;;;;;;;5090302;28;19924;-64
2023/06/23 06:10:31;;;;;;;;;;;;;;;;;;5088124;28;20331;-65
2023/06/23 06:16:54;;;;;;;;;;;;;;;;;;5108386;27;19924;-65
2023/06/23 06:20:40;;;;;;;;;;;;;;;;;;5089804;27;20273;-63
2023/06/23 06:30:25;;;;;;;;;;;;;;;;;;5106957;27;19912;-64
2023/06/23 06:32:51;;;;;;;;;;;;;;;;;;5110032;28;19926;-64
2023/06/23 06:35:17;;;;;;;;;;;;;;;;;;5111291;28;19976;-65
2023/06/23 06:37:47;;;;;;;;;;;;;;;;;;5122718;28;20339;-65
2023/06/23 06:40:13;;;;;;;;;;;;;;;;;;5109644;27;19920;-65
2023/06/23 06:46:26;;;;;;;;;;;;;;;;;;5099322;27;19931;-64
2023/06/23 06:48:52;;;;;;;;;;;;;;;;;;5089128;28;19923;-65
2023/06/23 06:51:41;;;;;;;;;;;;;;;;;;5169326;27;19926;-64
2023/06/23 06:54:07;;;;;;;;;;;;;;;;;;5150862;27;19911;-64
2023/06/23 06:58:50;;;;;;;;;;;;;;;;;;5073055;28;20048;-65
2023/06/23 07:01:16;;;;;;;;;;;;;;;;;;5068911;28;20341;-65
2023/06/23 07:03:42;;;;;;;;;;;;;;;;;;5069955;28;20331;-65
2023/06/23 07:06:10;;;;;;;;;;;;;;;;;;5063913;28;19970;-64
2023/06/23 07:08:36;;;;;;;;;;;;;;;;;;5063383;28;19917;-65
2023/06/23 07:13:17;;;;;;;;;;;;;;;;;;5091948;27;19927;-64
2023/06/23 07:17:11;;;;;;;;;;;;;;;;;;5089991;27;19920;-64
2023/06/23 07:19:38;;;;;;;;;;;;;;;;;;5086996;28;19912;-65
2023/06/23 07:25:23;;;;;;;;;;;;;;;;;;5063968;28;19924;-64
2023/06/23 07:27:49;;;;;;;;;;;;;;;;;;5070034;28;19912;-65
2023/06/23 07:30:49;;;;;;;;;;;;;;;;;;5087508;27;19923;-64
2023/06/23 07:33:15;;;;;;;;;;;;;;;;;;5088659;28;19912;-65
2023/06/23 07:35:43;;;;;;;;;;;;;;;;;;5089039;28;19912;-65
2023/06/23 07:38:09;;;;;;;;;;;;;;;;;;5089117;28;19913;-64
2023/06/23 07:44:33;;;;;;;;;;;;;;;;;;5085335;27;19912;-64
2023/06/23 07:46:59;;;;;;;;;;;;;;;;;;5074941;28;20605;-65
2023/06/23 07:49:26;;;;;;;;;;;;;;;;;;5101525;28;19962;-64
2023/06/23 07:52:21;;;;;;;;;;;;;;;;;;5087871;28;19927;-64
2023/06/23 07:54:47;;;;;;;;;;;;;;;;;;5081495;28;19912;-64
2023/06/23 07:57:13;;;;;;;;;;;;;;;;;;5080280;28;19909;-64
2023/06/23 08:00:00;;;;;;;;;;;;;;;;;;5069301;28;19923;-65
2023/06/23 08:03:50;;;;;;;;;;;;;;;;;;5110716;27;19916;-64
2023/06/23 08:08:17;;;;;;;;;;;;;;;;;;5077063;27;20303;-65
2023/06/23 08:13:11;;;;;;;;;;;;;;;;;;5146706;27;19919;-65
2023/06/23 08:16:12;;;;;;;;;;;;;;;;;;5137700;27;19916;-66
2023/06/23 08:21:04;;;;;;;;;;;;;;;;;;5130355;27;20014;-65
2023/06/23 08:23:30;;;;;;;;;;;;;;;;;;5130276;28;20409;-64
2023/06/23 08:25:56;;;;;;;;;;;;;;;;;;5143565;27;19962;-64
2023/06/23 08:28:22;;;;;;;;;;;;;;;;;;5145889;27;19912;-64
2023/06/23 08:30:48;;;;;;;;;;;;;;;;;;5131722;27;19916;-64
2023/06/23 08:35:27;;;;;;;;;;;;;;;;;;5150205;27;19919;-64
2023/06/23 08:37:53;;;;;;;;;;;;;;;;;;5146711;27;20286;-63
2023/06/23 08:40:48;;;;;;;;;;;;;;;;;;5108476;27;19926;-65
2023/06/23 08:43:14;;;;;;;;;;;;;;;;;;5108372;28;19954;-64
2023/06/23 08:45:43;;;;;;;;;;;;;;;;;;5109217;28;20409;-63
2023/06/23 08:48:09;;;;;;;;;;;;;;;;;;5110494;28;19912;-65
2023/06/23 08:50:35;;;;;;;;;;;;;;;;;;5108193;28;19908;-66
2023/06/23 08:53:01;;;;;;;;;;;;;;;;;;5110175;28;19916;-66
2023/06/23 08:55:27;;;;;;;;;;;;;;;;;;5108685;28;19916;-66
2023/06/23 08:57:53;;;;;;;;;;;;;;;;;;5107730;28;19919;-65
2023/06/23 09:00:19;;;;;;;;;;;;;;;;;;5107535;28;19966;-65
2023/06/23 09:02:45;;;;;;;;;;;;;;;;;;5100870;28;19919;-63
2023/06/23 09:05:11;;;;;;;;;;;;;;;;;;5109677;28;19984;-63
2023/06/23 09:07:37;;;;;;;;;;;;;;;;;;5110005;28;19916;-63
2023/06/23 09:10:03;;;;;;;;;;;;;;;;;;5108732;28;19912;-64
2023/06/23 09:12:29;;;;;;;;;;;;;;;;;;5100373;28;19969;-64
2023/06/23 09:14:55;;;;;;;;;;;;;;;;;;5108989;28;19957;-64
2023/06/23 09:17:21;;;;;;;;;;;;;;;;;;5105385;28;19908;-64
2023/06/23 09:19:49;;;;;;;;;;;;;;;;;;5108310;28;19920;-65
2023/06/23 09:22:15;;;;;;;;;;;;;;;;;;5108124;28;20356;-64
2023/06/23 09:24:41;;;;;;;;;;;;;;;;;;5114839;28;20030;-64
2023/06/23 09:28:19;;;;;;;;;;;;;;;;;;5151835;27;19912;-64
2023/06/23 09:30:45;;;;;;;;;;;;;;;;;;5150468;27;20280;-64
2023/06/23 09:33:11;;;;;;;;;;;;;;;;;;5132179;27;19919;-62
2023/06/23 09:35:37;;;;;;;;;;;;;;;;;;5142369;27;19908;-66
2023/06/23 09:38:03;;;;;;;;;;;;;;;;;;5143529;27;20011;-67
2023/06/23 09:40:29;;;;;;;;;;;;;;;;;;5130075;28;19973;-66
2023/06/23 09:42:55;;;;;;;;;;;;;;;;;;5141535;27;19912;-67
2023/06/23 09:45:21;;;;;;;;;;;;;;;;;;5143073;27;20028;-67
2023/06/23 09:47:48;;;;;;;;;;;;;;;;;;5125713;28;19920;-69
2023/06/23 09:50:14;;;;;;;;;;;;;;;;;;5147277;27;19998;-67
2023/06/23 09:52:40;;;;;;;;;;;;;;;;;;5128264;27;19911;-67
2023/06/23 09:55:07;;;;;;;;;;;;;;;;;;5149643;27;19922;-69
2023/06/23 09:57:33;;;;;;;;;;;;;;;;;;5151815;27;19907;-65
2023/06/23 10:00:00;;;;;;;;;;;;;;;;;;5146694;27;19969;-66
2023/06/23 10:02:26;;;;;;;;;;;;;;;;;;5149974;27;19919;-65
2023/06/23 10:04:52;;;;;;;;;;;;;;;;;;5151824;27;20299;-65
2023/06/23 10:07:18;;;;;;;;;;;;;;;;;;5126092;27;20301;-67
2023/06/23 10:09:44;;;;;;;;;;;;;;;;;;5143430;27;20428;-68
2023/06/23 10:12:11;;;;;;;;;;;;;;;;;;5138786;27;19907;-65
2023/06/23 10:14:37;;;;;;;;;;;;;;;;;;5149209;27;19918;-66
2023/06/23 10:17:02;;;;;;;;;;;;;;;;;;5150439;27;19907;-67
2023/06/23 10:19:28;;;;;;;;;;;;;;;;;;5143237;27;19943;-65
2023/06/23 10:21:54;;;;;;;;;;;;;;;;;;5135186;27;19964;-68
2023/06/23 10:24:22;;;;;;;;;;;;;;;;;;5123824;27;19915;-68
2023/06/23 10:26:48;;;;;;;;;;;;;;;;;;5146728;27;19999;-68
2023/06/23 10:29:14;;;;;;;;;;;;;;;;;;5130214;28;19955;-68
2023/06/23 10:31:40;;;;;;;;;;;;;;;;;;5121882;27;19960;-68
2023/06/23 10:34:06;;;;;;;;;;;;;;;;;;5148632;27;19911;-67
2023/06/23 10:36:33;;;;;;;;;;;;;;;;;;5149162;27;19918;-67
2023/06/23 10:38:59;;;;;;;;;;;;;;;;;;5137684;27;20006;-68
2023/06/23 10:41:25;;;;;;;;;;;;;;;;;;5134578;27;20015;-68
2023/06/23 10:43:52;;;;;;;;;;;;;;;;;;5135233;27;19914;-67
2023/06/23 10:46:18;;;;;;;;;;;;;;;;;;5116573;27;19950;-68
2023/06/23 10:48:44;;;;;;;;;;;;;;;;;;5116014;27;19946;-68
2023/06/23 10:51:10;;;;;;;;;;;;;;;;;;5097458;28;19908;-68
2023/06/23 10:53:37;;;;;;;;;;;;;;;;;;5114500;28;19919;-68
2023/06/23 10:56:03;;;;;;;;;;;;;;;;;;5115315;28;19908;-68
2023/06/23 10:58:29;;;;;;;;;;;;;;;;;;5115287;28;19908;-68
2023/06/23 11:00:55;;;;;;;;;;;;;;;;;;5115676;28;19996;-68
2023/06/23 11:03:21;;;;;;;;;;;;;;;;;;5127119;27;19914;-68
2023/06/23 11:05:46;;;;;;;;;;;;;;;;;;5136406;27;19978;-68
2023/06/23 11:08:12;;;;;;;;;;;;;;;;;;5135286;27;20363;-69
2023/06/23 11:10:38;;;;;;;;;;;;;;;;;;5117327;27;20356;-68
2023/06/23 11:13:04;;;;;;;;;;;;;;;;;;5132706;27;20089;-68
2023/06/23 11:15:30;;;;;;;;;;;;;;;;;;5118825;27;19965;-63
2023/06/23 11:17:56;;;;;;;;;;;;;;;;;;5118550;27;19936;-66
2023/06/23 11:20:22;;;;;;;;;;;;;;;;;;5117353;27;19943;-64
2023/06/23 11:22:48;;;;;;;;;;;;;;;;;;5126103;27;19911;-62
2023/06/23 11:25:14;;;;;;;;;;;;;;;;;;5105840;28;20279;-63
2023/06/23 11:27:40;;;;;;;;;;;;;;;;;;5093775;28;19969;-62
2023/06/23 11:30:06;;;;;;;;;;;;;;;;;;5103128;28;20023;-63
2023/06/23 11:32:32;;;;;;;;;;;;;;;;;;5113607;28;19938;-63
2023/06/23 11:34:59;;;;;;;;;;;;;;;;;;5109136;28;19923;-66
2023/06/23 11:37:25;;;;;;;;;;;;;;;;;;5115200;28;19916;-67
2023/06/23 11:39:51;;;;;;;;;;;;;;;;;;5107986;28;19915;-67
2023/06/23 11:42:17;;;;;;;;;;;;;;;;;;5094661;28;19912;-68
2023/06/23 11:44:43;;;;;;;;;;;;;;;;;;5095255;28;19912;-68
2023/06/23 11:47:09;;;;;;;;;;;;;;;;;;5094519;28;19920;-67
2023/06/23 11:49:36;;;;;;;;;;;;;;;;;;5093882;28;20004;-67
2023/06/23 11:52:02;;;;;;;;;;;;;;;;;;5097409;28;19908;-67
2023/06/23 11:54:30;;;;;;;;;;;;;;;;;;5100069;28;19941;-66
2023/06/23 11:56:56;;;;;;;;;;;;;;;;;;5106331;28;19961;-66
2023/06/23 11:59:22;;;;;;;;;;;;;;;;;;5094622;28;19908;-66
2023/06/23 12:01:48;;;;;;;;;;;;;;;;;;5105836;28;19955;-65
2023/06/23 12:04:15;;;;;;;;;;;;;;;;;;5114013;28;19915;-67
2023/06/23 12:06:41;;;;;;;;;;;;;;;;;;5108294;28;19976;-67
2023/06/23 12:09:07;;;;;;;;;;;;;;;;;;5105607;28;20419;-67
2023/06/23 12:11:33;;;;;;;;;;;;;;;;;;5113487;28;20268;-67
2023/06/23 12:13:59;;;;;;;;;;;;;;;;;;5108643;28;20399;-67
2023/06/23 12:16:25;;;;;;;;;;;;;;;;;;5096708;28;20284;-67
2023/06/23 12:18:52;;;;;;;;;;;;;;;;;;5097251;28;20334;-66
2023/06/23 12:21:18;;;;;;;;;;;;;;;;;;5097323;28;19951;-67
2023/06/23 12:23:44;;;;;;;;;;;;;;;;;;5110217;28;19916;-66
2023/06/23 12:26:10;;;;;;;;;;;;;;;;;;5119225;27;19923;-70
2023/06/23 12:28:36;;;;;;;;;;;;;;;;;;5130508;27;20363;-70
2023/06/23 12:31:06;;;;;;;;;;;;;;;;;;5135463;27;19907;-70
2023/06/23 12:33:35;;;;;;;;;;;;;;;;;;5136038;27;19908;-70
2023/06/23 12:36:02;;;;;;;;;;;;;;;;;;5116701;27;19911;-71
2023/06/23 12:38:27;;;;;;;;;;;;;;;;;;5135578;27;20279;-70
2023/06/23 12:40:53;;;;;;;;;;;;;;;;;;5135415;27;19907;-71
2023/06/23 12:43:19;;;;;;;;;;;;;;;;;;5135460;27;19996;-71
2023/06/23 12:45:45;;;;;;;;;;;;;;;;;;5135307;27;19908;-71
2023/06/23 12:48:11;;;;;;;;;;;;;;;;;;5134975;27;20393;-71
2023/06/23 12:50:37;;;;;;;;;;;;;;;;;;5116820;27;19911;-71
2023/06/23 12:53:03;;;;;;;;;;;;;;;;;;5135519;27;19907;-69
2023/06/23 12:55:29;;;;;;;;;;;;;;;;;;5135037;27;19908;-70
2023/06/23 12:57:55;;;;;;;;;;;;;;;;;;5135154;27;19907;-68
2023/06/23 13:00:21;;;;;;;;;;;;;;;;;;5116620;27;19907;-71
2023/06/23 13:02:49;;;;;;;;;;;;;;;;;;5134723;27;20019;-69
2023/06/23 13:05:15;;;;;;;;;;;;;;;;;;5116514;27;19912;-69
2023/06/23 13:07:41;;;;;;;;;;;;;;;;;;5134908;27;20432;-69
2023/06/23 13:10:07;;;;;;;;;;;;;;;;;;5134553;27;20315;-69
2023/06/23 13:12:33;;;;;;;;;;;;;;;;;;5135345;27;19950;-69
2023/06/23 13:14:59;;;;;;;;;;;;;;;;;;5134847;27;20111;-69
2023/06/23 13:17:25;;;;;;;;;;;;;;;;;;5134517;27;20446;-69
2023/06/23 13:19:51;;;;;;;;;;;;;;;;;;5134829;27;20291;-71
2023/06/23 13:22:17;;;;;;;;;;;;;;;;;;5134873;27;20291;-69
2023/06/23 13:24:43;;;;;;;;;;;;;;;;;;5134530;28;19907;-70
2023/06/23 13:27:10;;;;;;;;;;;;;;;;;;5134587;28;19926;-69
2023/06/23 13:29:38;;;;;;;;;;;;;;;;;;5134834;28;19914;-70
2023/06/23 13:32:04;;;;;;;;;;;;;;;;;;5115840;28;19950;-69
2023/06/23 13:34:30;;;;;;;;;;;;;;;;;;5134666;28;19943;-70
2023/06/23 13:36:56;;;;;;;;;;;;;;;;;;5134612;28;19912;-69
2023/06/23 13:39:22;;;;;;;;;;;;;;;;;;5134268;28;19943;-69
2023/06/23 13:41:48;;;;;;;;;;;;;;;;;;5134639;28;19907;-70
2023/06/23 13:44:17;;;;;;;;;;;;;;;;;;5134215;28;19908;-69
2023/06/23 13:46:42;;;;;;;;;;;;;;;;;;5134595;28;20428;-69
2023/06/23 13:49:09;;;;;;;;;;;;;;;;;;5134548;28;19912;-70
2023/06/23 13:51:35;;;;;;;;;;;;;;;;;;5134165;28;20003;-69
2023/06/23 13:54:04;;;;;;;;;;;;;;;;;;5134575;28;19965;-69
2023/06/23 13:56:30;;;;;;;;;;;;;;;;;;5134765;28;19907;-70
2023/06/23 13:58:56;;;;;;;;;;;;;;;;;;5134119;28;19915;-69
2023/06/23 14:01:21;;;;;;;;;;;;;;;;;;5134639;28;19907;-70
2023/06/23 14:03:49;;;;;;;;;;;;;;;;;;5134473;28;19911;-70
2023/06/23 14:06:15;;;;;;;;;;;;;;;;;;5134215;28;19918;-70
2023/06/23 14:08:41;;;;;;;;;;;;;;;;;;5133911;28;19939;-69
2023/06/23 14:11:07;;;;;;;;;;;;;;;;;;5134102;28;19912;-69
2023/06/23 14:13:33;;;;;;;;;;;;;;;;;;5135699;27;19961;-70
2023/06/23 14:15:59;;;;;;;;;;;;;;;;;;5119631;27;19907;-70
2023/06/23 14:18:25;;;;;;;;;;;;;;;;;;5137998;27;19915;-70
2023/06/23 14:20:51;;;;;;;;;;;;;;;;;;5137774;27;19907;-69
2023/06/23 14:23:37;;;;;;;;;;;;;;;;;;5137775;27;19919;-69
2023/06/23 14:26:04;;;;;;;;;;;;;;;;;;5119254;27;19919;-70
2023/06/23 14:28:30;;;;;;;;;;;;;;;;;;5137510;27;20484;-69
2023/06/23 14:30:56;;;;;;;;;;;;;;;;;;5137843;27;19946;-70
2023/06/23 14:33:21;;;;;;;;;;;;;;;;;;5137940;27;19907;-70
2023/06/23 14:35:47;;;;;;;;;;;;;;;;;;5137630;27;19908;-70
2023/06/23 14:38:13;;;;;;;;;;;;;;;;;;5119413;27;19914;-69
2023/06/23 14:40:42;;;;;;;;;;;;;;;;;;5137590;27;20416;-69
2023/06/23 14:43:08;;;;;;;;;;;;;;;;;;5119144;27;20309;-70
2023/06/23 14:45:34;;;;;;;;;;;;;;;;;;5138036;27;19953;-71
2023/06/23 14:48:00;;;;;;;;;;;;;;;;;;5137538;27;19915;-70
2023/06/23 14:50:26;;;;;;;;;;;;;;;;;;5137969;27;19908;-69
2023/06/23 14:52:52;;;;;;;;;;;;;;;;;;5137599;27;20002;-70
2023/06/23 14:55:18;;;;;;;;;;;;;;;;;;5137008;27;19915;-70
2023/06/23 14:57:44;;;;;;;;;;;;;;;;;;5137282;27;20006;-70
2023/06/23 15:00:10;;;;;;;;;;;;;;;;;;5137357;27;19951;-70
2023/06/23 15:02:36;;;;;;;;;;;;;;;;;;5136826;27;19915;-70
2023/06/23 15:05:02;;;;;;;;;;;;;;;;;;5137008;27;19907;-70
2023/06/23 15:07:28;;;;;;;;;;;;;;;;;;5137159;27;20018;-70
2023/06/23 15:09:54;;;;;;;;;;;;;;;;;;5136841;27;20372;-70
2023/06/23 15:12:20;;;;;;;;;;;;;;;;;;5137352;27;19914;-71
2023/06/23 15:14:46;;;;;;;;;;;;;;;;;;5136898;27;20424;-70
2023/06/23 15:17:11;;;;;;;;;;;;;;;;;;5118245;27;20378;-70
2023/06/23 15:19:37;;;;;;;;;;;;;;;;;;5137004;27;19907;-70
2023/06/23 15:22:06;;;;;;;;;;;;;;;;;;5136940;27;19998;-70
2023/06/23 15:24:31;;;;;;;;;;;;;;;;;;5136322;27;20283;-69
2023/06/23 15:26:57;;;;;;;;;;;;;;;;;;5136532;27;20019;-70
2023/06/23 15:29:23;;;;;;;;;;;;;;;;;;5118225;27;19914;-69
2023/06/23 15:31:49;;;;;;;;;;;;;;;;;;5136285;27;19915;-70
2023/06/23 15:34:15;;;;;;;;;;;;;;;;;;5136595;27;20434;-69
2023/06/23 15:36:41;;;;;;;;;;;;;;;;;;5136410;27;19951;-69
2023/06/23 15:39:07;;;;;;;;;;;;;;;;;;5136107;27;19918;-69
2023/06/23 15:41:33;;;;;;;;;;;;;;;;;;5136478;27;19914;-69
2023/06/23 15:43:59;;;;;;;;;;;;;;;;;;5136050;27;19908;-69
2023/06/23 15:46:25;;;;;;;;;;;;;;;;;;5136268;27;19911;-69
2023/06/23 15:48:51;;;;;;;;;;;;;;;;;;5136348;27;19907;-70
2023/06/23 15:51:17;;;;;;;;;;;;;;;;;;5136097;27;19911;-70
2023/06/23 15:53:43;;;;;;;;;;;;;;;;;;5136213;27;19998;-70
2023/06/23 15:56:09;;;;;;;;;;;;;;;;;;5136279;27;19908;-69
2023/06/23 15:58:35;;;;;;;;;;;;;;;;;;5135826;27;20351;-69
2023/06/23 16:01:01;;;;;;;;;;;;;;;;;;5136161;27;19976;-71
2023/06/23 16:03:27;;;;;;;;;;;;;;;;;;5136197;27;19915;-70
2023/06/23 16:05:56;;;;;;;;;;;;;;;;;;5117189;27;19907;-70
2023/06/23 16:08:22;;;;;;;;;;;;;;;;;;5136035;27;19916;-69
2023/06/23 16:10:48;;;;;;;;;;;;;;;;;;5136141;27;19959;-69
2023/06/23 16:13:14;;;;;;;;;;;;;;;;;;5135471;27;19907;-69
2023/06/23 16:15:39;;;;;;;;;;;;;;;;;;5136001;27;19908;-69
2023/06/23 16:18:05;;;;;;;;;;;;;;;;;;5135910;27;19908;-69
2023/06/23 16:20:31;;;;;;;;;;;;;;;;;;5135421;27;20067;-69
2023/06/23 16:22:57;;;;;;;;;;;;;;;;;;5117274;27;19964;-69
2023/06/23 16:25:23;;;;;;;;;;;;;;;;;;5135708;27;19907;-69
2023/06/23 16:27:49;;;;;;;;;;;;;;;;;;5135122;27;19920;-69
2023/06/23 16:30:15;;;;;;;;;;;;;;;;;;5136146;27;20267;-69
2023/06/23 16:32:41;;;;;;;;;;;;;;;;;;5136308;27;20356;-69
2023/06/23 16:35:07;;;;;;;;;;;;;;;;;;5134894;27;19946;-69
2023/06/23 16:37:33;;;;;;;;;;;;;;;;;;5135164;27;19908;-69
2023/06/23 16:39:59;;;;;;;;;;;;;;;;;;5135465;27;19915;-69
2023/06/23 16:42:25;;;;;;;;;;;;;;;;;;5135279;27;19907;-69
2023/06/23 16:44:51;;;;;;;;;;;;;;;;;;5135365;27;20383;-69
2023/06/23 16:47:17;;;;;;;;;;;;;;;;;;5134916;27;19919;-69
2023/06/23 16:49:43;;;;;;;;;;;;;;;;;;5135298;27;19911;-70
2023/06/23 16:52:09;;;;;;;;;;;;;;;;;;5135187;27;20375;-69
2023/06/23 16:54:37;;;;;;;;;;;;;;;;;;5116342;27;20312;-69
2023/06/23 16:57:04;;;;;;;;;;;;;;;;;;5135174;27;19908;-69
2023/06/23 16:59:30;;;;;;;;;;;;;;;;;;5134999;27;19911;-69
2023/06/23 17:01:56;;;;;;;;;;;;;;;;;;5134739;27;20260;-69
2023/06/23 17:04:22;;;;;;;;;;;;;;;;;;5134916;27;19908;-70
2023/06/23 17:06:48;;;;;;;;;;;;;;;;;;5134849;27;19916;-68
2023/06/23 17:09:14;;;;;;;;;;;;;;;;;;5134310;27;19908;-69
2023/06/23 17:11:40;;;;;;;;;;;;;;;;;;5134847;27;19908;-69
2023/06/23 17:14:06;;;;;;;;;;;;;;;;;;5134729;27;19960;-69
2023/06/23 17:16:32;;;;;;;;;;;;;;;;;;5134380;27;19931;-70
2023/06/23 17:18:57;;;;;;;;;;;;;;;;;;5135038;27;20014;-69
2023/06/23 17:21:23;;;;;;;;;;;;;;;;;;5135054;27;19914;-69
2023/06/23 17:23:49;;;;;;;;;;;;;;;;;;5134695;27;19907;-70
2023/06/23 17:26:15;;;;;;;;;;;;;;;;;;5134773;28;19920;-71
2023/06/23 17:28:41;;;;;;;;;;;;;;;;;;5135003;28;19915;-70
2023/06/23 17:31:07;;;;;;;;;;;;;;;;;;5134431;28;20379;-70
2023/06/23 17:33:35;;;;;;;;;;;;;;;;;;5134689;28;19914;-69
2023/06/23 17:36:00;;;;;;;;;;;;;;;;;;5134958;28;19907;-70
2023/06/23 17:38:26;;;;;;;;;;;;;;;;;;5134390;28;19980;-69
2023/06/23 17:40:52;;;;;;;;;;;;;;;;;;5134739;28;19975;-70
2023/06/23 17:43:18;;;;;;;;;;;;;;;;;;5134558;28;20010;-69
2023/06/23 17:45:44;;;;;;;;;;;;;;;;;;5134268;28;19907;-70
2023/06/23 17:48:10;;;;;;;;;;;;;;;;;;5136227;27;19907;-70
2023/06/23 17:50:36;;;;;;;;;;;;;;;;;;5138219;27;19914;-69
2023/06/23 17:53:03;;;;;;;;;;;;;;;;;;5138370;27;19907;-69
2023/06/23 17:55:29;;;;;;;;;;;;;;;;;;5138479;27;19908;-69
2023/06/23 17:57:55;;;;;;;;;;;;;;;;;;5138570;27;19959;-70
2023/06/23 18:00:21;;;;;;;;;;;;;;;;;;5138732;27;20019;-69
2023/06/23 18:02:46;;;;;;;;;;;;;;;;;;5138861;27;19911;-70
2023/06/23 18:05:12;;;;;;;;;;;;;;;;;;5138215;27;19907;-69
2023/06/23 18:07:38;;;;;;;;;;;;;;;;;;5138312;27;20278;-70
2023/06/23 18:10:04;;;;;;;;;;;;;;;;;;5138330;27;19907;-70
2023/06/23 18:12:30;;;;;;;;;;;;;;;;;;5137923;27;20271;-70
2023/06/23 18:14:56;;;;;;;;;;;;;;;;;;5138259;27;20302;-70
2023/06/23 18:17:22;;;;;;;;;;;;;;;;;;5138229;27;20385;-70
2023/06/23 18:19:48;;;;;;;;;;;;;;;;;;5119295;27;20394;-70
2023/06/23 18:22:14;;;;;;;;;;;;;;;;;;5138108;27;19911;-70
2023/06/23 18:25:25;;;;;;;;;;;;;;;;;;5112222;27;19912;-69
2023/06/23 18:27:51;;;;;;;;;;;;;;;;;;5111253;28;19912;-69
2023/06/23 18:30:17;;;;;;;;;;;;;;;;;;5111553;28;19908;-70
2023/06/23 18:32:43;;;;;;;;;;;;;;;;;;5111179;28;19912;-70
2023/06/23 18:35:10;;;;;;;;;;;;;;;;;;5111777;28;19908;-69
2023/06/23 18:37:35;;;;;;;;;;;;;;;;;;5111440;28;20380;-69
2023/06/23 18:40:01;;;;;;;;;;;;;;;;;;5111076;28;19908;-70
2023/06/23 18:42:27;;;;;;;;;;;;;;;;;;5109972;28;19908;-70
2023/06/23 18:44:53;;;;;;;;;;;;;;;;;;5109968;28;19920;-69
2023/06/23 18:47:19;;;;;;;;;;;;;;;;;;5110831;28;19930;-71
2023/06/23 18:49:45;;;;;;;;;;;;;;;;;;5111216;28;19914;-69
2023/06/23 18:52:11;;;;;;;;;;;;;;;;;;5109806;28;20004;-69
2023/06/23 18:54:37;;;;;;;;;;;;;;;;;;5110616;28;19908;-69
2023/06/23 18:57:03;;;;;;;;;;;;;;;;;;5110993;28;19919;-69
2023/06/23 18:59:29;;;;;;;;;;;;;;;;;;5111046;28;19908;-70
2023/06/23 19:01:55;;;;;;;;;;;;;;;;;;5110589;28;19914;-70
2023/06/23 19:06:31;;;;;;;;;;;;;;;;;;5091101;27;19923;-69
2023/06/23 19:08:59;;;;;;;;;;;;;;;;;;5090792;28;19994;-68
2023/06/23 19:11:25;;;;;;;;;;;;;;;;;;5091138;28;20320;-69
2023/06/23 19:13:51;;;;;;;;;;;;;;;;;;5089818;28;19987;-68
2023/06/23 19:16:17;;;;;;;;;;;;;;;;;;5090737;28;20448;-69
2023/06/23 19:18:43;;;;;;;;;;;;;;;;;;5091170;28;19908;-69
2023/06/23 19:21:09;;;;;;;;;;;;;;;;;;5091142;28;19915;-69
2023/06/23 19:23:35;;;;;;;;;;;;;;;;;;5090543;28;19909;-69
2023/06/23 19:26:01;;;;;;;;;;;;;;;;;;5090832;28;19916;-69
2023/06/23 19:31:37;;;;;;;;;;;;;;;;;;5091803;27;19923;-70
2023/06/23 19:37:16;;;;;;;;;;;;;;;;;;5109907;27;20264;-69
2023/06/23 19:39:42;;;;;;;;;;;;;;;;;;5111097;28;19918;-70
2023/06/23 19:42:08;;;;;;;;;;;;;;;;;;5111137;28;20325;-70
2023/06/23 19:44:34;;;;;;;;;;;;;;;;;;5110905;28;20289;-71
2023/06/23 19:47:00;;;;;;;;;;;;;;;;;;5111284;28;19944;-71
2023/06/23 19:49:27;;;;;;;;;;;;;;;;;;5109991;28;20273;-70
2023/06/23 19:51:53;;;;;;;;;;;;;;;;;;5111128;28;19908;-69